sensor_id;sensor_type;location;lat;lon;timestamp;temperature;humidity
22108;DHT22;11220;48.812;9.128;2023-04-03T00:00:50;17.60;74.10
22108;DHT22;11220;48.812;9.128;2023-04-03T00:03:17;17.60;74.10
22108;DHT22;11220;48.812;9.128;2023-04-03T00:05:42;17.60;74.10
22108;DHT22;11220;48.812;9.128;2023-04-03T00:08:08;17.60;74.10
22108;DHT22;11220;48.812;9.128;2023-04-03T00:10:36;17.60;74.10
22108;DHT22;11220;48.812;9.128;2023-04-03T00:13:02;17.60;74.10
22108;DHT22;11220;48.812;9.128;2023-04-03T00:15:28;17.60;74.10
22108;DHT22;11220;48.812;9.128;2023-04-03T00:17:54;17.60;74.00
22108;DHT22;11220;48.812;9.128;2023-04-03T00:20:19;17.60;74.10
22108;DHT22;11220;48.812;9.128;2023-04-03T00:22:45;17.60;74.00
22108;DHT22;11220;48.812;9.128;2023-04-03T00:25:11;17.60;74.00
22108;DHT22;11220;48.812;9.128;2023-04-03T00:27:38;17.60;74.00
22108;DHT22;11220;48.812;9.128;2023-04-03T00:30:05;17.60;74.00
22108;DHT22;11220;48.812;9.128;2023-04-03T00:32:32;17.60;74.10
22108;DHT22;11220;48.812;9.128;2023-04-03T00:34:57;17.60;74.10
22108;DHT22;11220;48.812;9.128;2023-04-03T00:37:23;17.60;74.10
22108;DHT22;11220;48.812;9.128;2023-04-03T00:39:48;17.60;74.10
22108;DHT22;11220;48.812;9.128;2023-04-03T00:42:14;17.60;74.10
22108;DHT22;11220;48.812;9.128;2023-04-03T00:47:07;17.50;74.00
22108;DHT22;11220;48.812;9.128;2023-04-03T00:49:34;17.50;74.00
22108;DHT22;11220;48.812;9.128;2023-04-03T00:52:01;17.50;74.10
22108;DHT22;11220;48.812;9.128;2023-04-03T00:54:27;17.50;74.10
22108;DHT22;11220;48.812;9.128;2023-04-03T00:56:54;17.60;74.10
22108;DHT22;11220;48.812;9.128;2023-04-03T00:59:25;17.50;74.10
22108;DHT22;11220;48.812;9.128;2023-04-03T01:01:53;17.60;74.10
22108;DHT22;11220;48.812;9.128;2023-04-03T01:06:53;17.50;74.00
22108;DHT22;11220;48.812;9.128;2023-04-03T01:09:21;17.50;74.00
22108;DHT22;11220;48.812;9.128;2023-04-03T01:11:47;17.50;74.00
22108;DHT22;11220;48.812;9.128;2023-04-03T01:14:12;17.50;74.00
22108;DHT22;11220;48.812;9.128;2023-04-03T01:16:38;17.50;74.00
22108;DHT22;11220;48.812;9.128;2023-04-03T01:19:09;17.50;74.00
22108;DHT22;11220;48.812;9.128;2023-04-03T01:24:42;17.50;74.00
22108;DHT22;11220;48.812;9.128;2023-04-03T01:27:09;17.50;73.90
22108;DHT22;11220;48.812;9.128;2023-04-03T01:29:36;17.50;73.90
22108;DHT22;11220;48.812;9.128;2023-04-03T01:32:02;17.40;73.90
22108;DHT22;11220;48.812;9.128;2023-04-03T01:34:29;17.40;73.80
22108;DHT22;11220;48.812;9.128;2023-04-03T01:36:55;17.50;73.80
22108;DHT22;11220;48.812;9.128;2023-04-03T01:39:21;17.40;73.70
22108;DHT22;11220;48.812;9.128;2023-04-03T01:41:47;17.50;73.70
22108;DHT22;11220;48.812;9.128;2023-04-03T01:44:13;17.50;73.70
22108;DHT22;11220;48.812;9.128;2023-04-03T01:46:39;17.50;73.60
22108;DHT22;11220;48.812;9.128;2023-04-03T01:49:04;17.50;73.60
22108;DHT22;11220;48.812;9.128;2023-04-03T01:51:30;17.40;73.50
22108;DHT22;11220;48.812;9.128;2023-04-03T01:53:56;17.40;73.50
22108;DHT22;11220;48.812;9.128;2023-04-03T01:56:22;17.40;73.40
22108;DHT22;11220;48.812;9.128;2023-04-03T01:58:47;17.40;73.40
22108;DHT22;11220;48.812;9.128;2023-04-03T02:01:13;17.40;73.40
22108;DHT22;11220;48.812;9.128;2023-04-03T02:03:38;17.40;73.40
22108;DHT22;11220;48.812;9.128;2023-04-03T02:06:04;17.40;73.40
22108;DHT22;11220;48.812;9.128;2023-04-03T02:08:30;17.40;73.40
22108;DHT22;11220;48.812;9.128;2023-04-03T02:10:55;17.40;73.30
22108;DHT22;11220;48.812;9.128;2023-04-03T02:13:21;17.40;73.30
22108;DHT22;11220;48.812;9.128;2023-04-03T02:15:46;17.40;73.30
22108;DHT22;11220;48.812;9.128;2023-04-03T02:18:13;17.40;73.30
22108;DHT22;11220;48.812;9.128;2023-04-03T02:20:39;17.40;73.20
22108;DHT22;11220;48.812;9.128;2023-04-03T02:23:04;17.40;73.20
22108;DHT22;11220;48.812;9.128;2023-04-03T02:25:31;17.40;73.20
22108;DHT22;11220;48.812;9.128;2023-04-03T02:27:56;17.30;73.10
22108;DHT22;11220;48.812;9.128;2023-04-03T02:30:22;17.30;73.20
22108;DHT22;11220;48.812;9.128;2023-04-03T02:32:47;17.30;73.20
22108;DHT22;11220;48.812;9.128;2023-04-03T02:35:13;17.40;73.20
22108;DHT22;11220;48.812;9.128;2023-04-03T02:37:38;17.30;73.00
22108;DHT22;11220;48.812;9.128;2023-04-03T02:40:05;17.30;73.00
22108;DHT22;11220;48.812;9.128;2023-04-03T02:42:31;17.30;73.00
22108;DHT22;11220;48.812;9.128;2023-04-03T02:44:57;17.30;73.10
22108;DHT22;11220;48.812;9.128;2023-04-03T02:47:22;17.30;73.20
22108;DHT22;11220;48.812;9.128;2023-04-03T02:49:48;17.30;73.10
22108;DHT22;11220;48.812;9.128;2023-04-03T02:52:14;17.30;73.10
22108;DHT22;11220;48.812;9.128;2023-04-03T02:54:40;17.30;73.10
22108;DHT22;11220;48.812;9.128;2023-04-03T02:57:06;17.30;73.10
22108;DHT22;11220;48.812;9.128;2023-04-03T02:59:34;17.30;73.00
22108;DHT22;11220;48.812;9.128;2023-04-03T03:02:00;17.30;73.00
22108;DHT22;11220;48.812;9.128;2023-04-03T03:04:26;17.30;73.10
22108;DHT22;11220;48.812;9.128;2023-04-03T03:06:51;17.30;73.00
22108;DHT22;11220;48.812;9.128;2023-04-03T03:09:17;17.30;72.90
22108;DHT22;11220;48.812;9.128;2023-04-03T03:11:43;17.30;72.90
22108;DHT22;11220;48.812;9.128;2023-04-03T03:14:08;17.30;72.80
22108;DHT22;11220;48.812;9.128;2023-04-03T03:16:34;17.30;72.80
22108;DHT22;11220;48.812;9.128;2023-04-03T03:19:00;17.30;72.80
22108;DHT22;11220;48.812;9.128;2023-04-03T03:21:25;17.30;72.80
22108;DHT22;11220;48.812;9.128;2023-04-03T03:23:51;17.30;72.80
22108;DHT22;11220;48.812;9.128;2023-04-03T03:26:16;17.30;72.70
22108;DHT22;11220;48.812;9.128;2023-04-03T03:28:42;17.30;72.70
22108;DHT22;11220;48.812;9.128;2023-04-03T03:31:08;17.30;72.70
22108;DHT22;11220;48.812;9.128;2023-04-03T03:33:34;17.30;72.70
22108;DHT22;11220;48.812;9.128;2023-04-03T03:35:59;17.30;72.60
22108;DHT22;11220;48.812;9.128;2023-04-03T03:38:25;17.30;72.60
22108;DHT22;11220;48.812;9.128;2023-04-03T03:40:51;17.20;72.50
22108;DHT22;11220;48.812;9.128;2023-04-03T03:43:17;17.20;72.50
22108;DHT22;11220;48.812;9.128;2023-04-03T03:45:43;17.20;72.40
22108;DHT22;11220;48.812;9.128;2023-04-03T03:48:09;17.30;73.50
22108;DHT22;11220;48.812;9.128;2023-04-03T03:50:35;17.20;72.50
22108;DHT22;11220;48.812;9.128;2023-04-03T03:53:01;17.20;72.40
22108;DHT22;11220;48.812;9.128;2023-04-03T03:55:26;17.20;72.30
22108;DHT22;11220;48.812;9.128;2023-04-03T03:57:52;17.20;72.30
22108;DHT22;11220;48.812;9.128;2023-04-03T04:00:18;17.90;72.80
22108;DHT22;11220;48.812;9.128;2023-04-03T04:02:44;17.20;72.30
22108;DHT22;11220;48.812;9.128;2023-04-03T04:05:10;17.20;72.20
22108;DHT22;11220;48.812;9.128;2023-04-03T04:07:35;17.80;72.70
22108;DHT22;11220;48.812;9.128;2023-04-03T04:10:01;17.20;72.20
22108;DHT22;11220;48.812;9.128;2023-04-03T04:12:27;17.20;72.20
22108;DHT22;11220;48.812;9.128;2023-04-03T04:14:52;17.20;72.30
22108;DHT22;11220;48.812;9.128;2023-04-03T04:17:18;17.20;72.20
22108;DHT22;11220;48.812;9.128;2023-04-03T04:19:43;17.20;72.20
22108;DHT22;11220;48.812;9.128;2023-04-03T04:22:09;17.20;72.10
22108;DHT22;11220;48.812;9.128;2023-04-03T04:24:34;17.20;73.00
22108;DHT22;11220;48.812;9.128;2023-04-03T04:27:00;17.20;72.00
22108;DHT22;11220;48.812;9.128;2023-04-03T04:29:25;17.20;72.00
22108;DHT22;11220;48.812;9.128;2023-04-03T04:31:51;17.20;72.00
22108;DHT22;11220;48.812;9.128;2023-04-03T04:34:16;17.20;72.90
22108;DHT22;11220;48.812;9.128;2023-04-03T04:36:42;17.20;72.00
22108;DHT22;11220;48.812;9.128;2023-04-03T04:39:07;17.20;72.00
22108;DHT22;11220;48.812;9.128;2023-04-03T04:41:34;17.20;72.00
22108;DHT22;11220;48.812;9.128;2023-04-03T04:43:59;17.20;72.00
22108;DHT22;11220;48.812;9.128;2023-04-03T04:46:25;17.20;72.00
22108;DHT22;11220;48.812;9.128;2023-04-03T04:48:51;17.20;72.10
22108;DHT22;11220;48.812;9.128;2023-04-03T04:51:17;17.10;72.10
22108;DHT22;11220;48.812;9.128;2023-04-03T04:53:43;17.10;72.10
22108;DHT22;11220;48.812;9.128;2023-04-03T04:56:09;17.20;72.30
22108;DHT22;11220;48.812;9.128;2023-04-03T04:58:34;17.20;72.50
22108;DHT22;11220;48.812;9.128;2023-04-03T05:01:00;17.20;72.60
22108;DHT22;11220;48.812;9.128;2023-04-03T05:03:26;17.20;72.70
22108;DHT22;11220;48.812;9.128;2023-04-03T05:05:52;17.20;72.90
22108;DHT22;11220;48.812;9.128;2023-04-03T05:08:17;17.20;73.00
22108;DHT22;11220;48.812;9.128;2023-04-03T05:10:45;17.30;73.30
22108;DHT22;11220;48.812;9.128;2023-04-03T05:13:11;17.30;73.40
22108;DHT22;11220;48.812;9.128;2023-04-03T05:15:36;17.30;73.60
22108;DHT22;11220;48.812;9.128;2023-04-03T05:18:02;17.30;73.70
22108;DHT22;11220;48.812;9.128;2023-04-03T05:20:27;17.30;73.70
22108;DHT22;11220;48.812;9.128;2023-04-03T05:22:53;17.40;73.80
22108;DHT22;11220;48.812;9.128;2023-04-03T05:25:18;17.30;73.70
22108;DHT22;11220;48.812;9.128;2023-04-03T05:27:44;17.40;73.90
22108;DHT22;11220;48.812;9.128;2023-04-03T05:30:10;17.40;73.90
22108;DHT22;11220;48.812;9.128;2023-04-03T05:32:36;17.40;73.80
22108;DHT22;11220;48.812;9.128;2023-04-03T05:35:01;16.60;73.40
22108;DHT22;11220;48.812;9.128;2023-04-03T05:37:27;17.50;73.90
22108;DHT22;11220;48.812;9.128;2023-04-03T05:39:52;17.50;73.80
22108;DHT22;11220;48.812;9.128;2023-04-03T05:42:18;17.50;73.80
22108;DHT22;11220;48.812;9.128;2023-04-03T05:44:44;17.60;73.80
22108;DHT22;11220;48.812;9.128;2023-04-03T05:47:12;17.60;73.70
22108;DHT22;11220;48.812;9.128;2023-04-03T05:49:37;17.60;73.70
22108;DHT22;11220;48.812;9.128;2023-04-03T05:52:10;17.60;73.70
22108;DHT22;11220;48.812;9.128;2023-04-03T05:54:38;17.70;73.70
22108;DHT22;11220;48.812;9.128;2023-04-03T05:57:03;17.70;73.70
22108;DHT22;11220;48.812;9.128;2023-04-03T05:59:29;17.70;73.60
22108;DHT22;11220;48.812;9.128;2023-04-03T06:01:54;17.30;73.30
22108;DHT22;11220;48.812;9.128;2023-04-03T06:04:20;17.70;73.40
22108;DHT22;11220;48.812;9.128;2023-04-03T06:06:50;17.80;73.50
22108;DHT22;11220;48.812;9.128;2023-04-03T06:09:21;17.80;73.50
22108;DHT22;11220;48.812;9.128;2023-04-03T06:11:46;17.90;73.60
22108;DHT22;11220;48.812;9.128;2023-04-03T06:14:12;17.90;73.70
22108;DHT22;11220;48.812;9.128;2023-04-03T06:16:38;17.90;73.70
22108;DHT22;11220;48.812;9.128;2023-04-03T06:19:04;17.90;73.70
22108;DHT22;11220;48.812;9.128;2023-04-03T06:21:31;17.90;73.70
22108;DHT22;11220;48.812;9.128;2023-04-03T06:23:56;18.00;73.70
22108;DHT22;11220;48.812;9.128;2023-04-03T06:26:22;18.00;73.60
22108;DHT22;11220;48.812;9.128;2023-04-03T06:28:48;18.00;73.50
22108;DHT22;11220;48.812;9.128;2023-04-03T06:31:13;18.00;73.40
22108;DHT22;11220;48.812;9.128;2023-04-03T06:33:39;18.00;73.30
22108;DHT22;11220;48.812;9.128;2023-04-03T06:36:05;18.00;73.30
22108;DHT22;11220;48.812;9.128;2023-04-03T06:38:32;18.00;73.30
22108;DHT22;11220;48.812;9.128;2023-04-03T06:40:57;18.10;73.40
22108;DHT22;11220;48.812;9.128;2023-04-03T06:43:23;18.10;73.50
22108;DHT22;11220;48.812;9.128;2023-04-03T06:45:49;18.10;73.60
22108;DHT22;11220;48.812;9.128;2023-04-03T06:48:15;18.10;73.60
22108;DHT22;11220;48.812;9.128;2023-04-03T06:50:41;18.10;73.70
22108;DHT22;11220;48.812;9.128;2023-04-03T06:53:07;18.10;73.70
22108;DHT22;11220;48.812;9.128;2023-04-03T06:55:33;18.10;74.60
22108;DHT22;11220;48.812;9.128;2023-04-03T06:57:58;18.10;73.60
22108;DHT22;11220;48.812;9.128;2023-04-03T07:00:24;18.10;73.50
22108;DHT22;11220;48.812;9.128;2023-04-03T07:02:50;18.10;73.50
22108;DHT22;11220;48.812;9.128;2023-04-03T07:05:16;18.10;73.40
22108;DHT22;11220;48.812;9.128;2023-04-03T07:07:42;18.10;73.20
22108;DHT22;11220;48.812;9.128;2023-04-03T07:10:08;18.10;73.10
22108;DHT22;11220;48.812;9.128;2023-04-03T07:12:34;18.10;73.00
22108;DHT22;11220;48.812;9.128;2023-04-03T07:15:00;18.10;73.00
22108;DHT22;11220;48.812;9.128;2023-04-03T07:17:25;18.10;72.90
22108;DHT22;11220;48.812;9.128;2023-04-03T07:19:52;18.10;73.00
22108;DHT22;11220;48.812;9.128;2023-04-03T07:22:17;18.20;73.10
22108;DHT22;11220;48.812;9.128;2023-04-03T07:24:43;18.20;73.00
22108;DHT22;11220;48.812;9.128;2023-04-03T07:27:09;18.20;73.10
22108;DHT22;11220;48.812;9.128;2023-04-03T07:29:35;18.20;73.00
22108;DHT22;11220;48.812;9.128;2023-04-03T07:32:01;18.30;73.00
22108;DHT22;11220;48.812;9.128;2023-04-03T07:34:26;18.30;73.00
22108;DHT22;11220;48.812;9.128;2023-04-03T07:36:52;18.30;72.90
22108;DHT22;11220;48.812;9.128;2023-04-03T07:39:18;18.30;72.80
22108;DHT22;11220;48.812;9.128;2023-04-03T07:41:43;18.30;72.70
22108;DHT22;11220;48.812;9.128;2023-04-03T07:44:09;18.30;72.70
22108;DHT22;11220;48.812;9.128;2023-04-03T07:46:37;18.30;72.70
22108;DHT22;11220;48.812;9.128;2023-04-03T07:49:04;18.30;72.60
22108;DHT22;11220;48.812;9.128;2023-04-03T07:51:29;18.40;72.60
22108;DHT22;11220;48.812;9.128;2023-04-03T07:53:56;18.40;72.60
22108;DHT22;11220;48.812;9.128;2023-04-03T07:56:21;18.40;72.50
22108;DHT22;11220;48.812;9.128;2023-04-03T07:58:48;18.40;72.50
22108;DHT22;11220;48.812;9.128;2023-04-03T08:01:13;18.80;72.70
22108;DHT22;11220;48.812;9.128;2023-04-03T08:03:39;18.40;72.50
22108;DHT22;11220;48.812;9.128;2023-04-03T08:06:07;18.40;72.40
22108;DHT22;11220;48.812;9.128;2023-04-03T08:08:33;18.40;72.40
22108;DHT22;11220;48.812;9.128;2023-04-03T08:11:00;18.50;72.40
22108;DHT22;11220;48.812;9.128;2023-04-03T08:13:28;18.50;72.30
22108;DHT22;11220;48.812;9.128;2023-04-03T08:15:54;18.50;72.20
22108;DHT22;11220;48.812;9.128;2023-04-03T08:18:21;18.50;72.10
22108;DHT22;11220;48.812;9.128;2023-04-03T08:20:50;18.50;72.00
22108;DHT22;11220;48.812;9.128;2023-04-03T08:23:16;18.50;72.00
22108;DHT22;11220;48.812;9.128;2023-04-03T08:25:42;18.50;72.00
22108;DHT22;11220;48.812;9.128;2023-04-03T08:28:09;18.50;71.90
22108;DHT22;11220;48.812;9.128;2023-04-03T08:30:35;18.50;71.80
22108;DHT22;11220;48.812;9.128;2023-04-03T08:33:01;18.50;71.70
22108;DHT22;11220;48.812;9.128;2023-04-03T08:35:27;18.30;71.50
22108;DHT22;11220;48.812;9.128;2023-04-03T08:37:53;18.50;71.60
22108;DHT22;11220;48.812;9.128;2023-04-03T08:40:18;18.50;71.60
22108;DHT22;11220;48.812;9.128;2023-04-03T08:45:16;18.40;65.20
22108;DHT22;11220;48.812;9.128;2023-04-03T08:48:00;18.10;61.80
22108;DHT22;11220;48.812;9.128;2023-04-03T08:50:35;18.00;63.40
22108;DHT22;11220;48.812;9.128;2023-04-03T08:53:03;17.90;65.40
22108;DHT22;11220;48.812;9.128;2023-04-03T08:55:37;17.90;66.90
22108;DHT22;11220;48.812;9.128;2023-04-03T08:58:07;19.30;68.60
22108;DHT22;11220;48.812;9.128;2023-04-03T09:03:15;18.10;68.90
22108;DHT22;11220;48.812;9.128;2023-04-03T09:08:30;18.20;69.40
22108;DHT22;11220;48.812;9.128;2023-04-03T09:11:09;18.30;69.70
22108;DHT22;11220;48.812;9.128;2023-04-03T09:13:59;18.30;69.80
22108;DHT22;11220;48.812;9.128;2023-04-03T09:16:49;18.30;69.90
22108;DHT22;11220;48.812;9.128;2023-04-03T09:22:03;18.40;70.20
22108;DHT22;11220;48.812;9.128;2023-04-03T09:24:35;18.40;70.30
22108;DHT22;11220;48.812;9.128;2023-04-03T09:27:05;18.40;70.20
22108;DHT22;11220;48.812;9.128;2023-04-03T09:29:36;18.50;70.30
22108;DHT22;11220;48.812;9.128;2023-04-03T09:32:18;18.50;70.30
22108;DHT22;11220;48.812;9.128;2023-04-03T09:34:45;18.50;70.30
22108;DHT22;11220;48.812;9.128;2023-04-03T09:37:41;18.50;70.30
22108;DHT22;11220;48.812;9.128;2023-04-03T09:43:00;18.50;70.40
22108;DHT22;11220;48.812;9.128;2023-04-03T09:45:30;18.50;70.40
22108;DHT22;11220;48.812;9.128;2023-04-03T09:50:36;18.50;70.40
22108;DHT22;11220;48.812;9.128;2023-04-03T09:56:02;18.50;70.40
22108;DHT22;11220;48.812;9.128;2023-04-03T09:58:39;18.50;70.40
22108;DHT22;11220;48.812;9.128;2023-04-03T10:01:27;19.40;71.20
22108;DHT22;11220;48.812;9.128;2023-04-03T10:06:31;18.50;70.40
22108;DHT22;11220;48.812;9.128;2023-04-03T10:09:03;18.60;70.50
22108;DHT22;11220;48.812;9.128;2023-04-03T10:11:30;18.60;70.50
22108;DHT22;11220;48.812;9.128;2023-04-03T10:14:00;18.60;70.50
22108;DHT22;11220;48.812;9.128;2023-04-03T10:16:32;18.60;70.50
22108;DHT22;11220;48.812;9.128;2023-04-03T10:22:16;18.60;70.50
22108;DHT22;11220;48.812;9.128;2023-04-03T10:24:51;18.60;70.40
22108;DHT22;11220;48.812;9.128;2023-04-03T10:33:02;18.70;70.50
22108;DHT22;11220;48.812;9.128;2023-04-03T10:41:32;18.70;70.40
22108;DHT22;11220;48.812;9.128;2023-04-03T10:44:31;18.70;71.30
22108;DHT22;11220;48.812;9.128;2023-04-03T10:47:20;18.70;70.40
22108;DHT22;11220;48.812;9.128;2023-04-03T10:55:24;18.70;70.40
22108;DHT22;11220;48.812;9.128;2023-04-03T10:57:56;18.70;70.40
22108;DHT22;11220;48.812;9.128;2023-04-03T11:00:35;18.70;70.40
22108;DHT22;11220;48.812;9.128;2023-04-03T11:03:13;18.70;70.50
22108;DHT22;11220;48.812;9.128;2023-04-03T11:05:48;18.70;70.40
22108;DHT22;11220;48.812;9.128;2023-04-03T11:11:03;18.70;70.50
22108;DHT22;11220;48.812;9.128;2023-04-03T11:13:41;18.70;70.50
22108;DHT22;11220;48.812;9.128;2023-04-03T11:16:09;18.60;70.40
22108;DHT22;11220;48.812;9.128;2023-04-03T11:18:41;18.60;70.40
22108;DHT22;11220;48.812;9.128;2023-04-03T11:21:19;18.70;70.50
22108;DHT22;11220;48.812;9.128;2023-04-03T11:23:47;18.70;70.50
22108;DHT22;11220;48.812;9.128;2023-04-03T11:26:15;18.70;70.50
22108;DHT22;11220;48.812;9.128;2023-04-03T11:28:41;18.70;70.40
22108;DHT22;11220;48.812;9.128;2023-04-03T11:31:32;18.70;70.40
22108;DHT22;11220;48.812;9.128;2023-04-03T11:36:47;18.70;70.40
22108;DHT22;11220;48.812;9.128;2023-04-03T11:39:26;18.70;70.40
22108;DHT22;11220;48.812;9.128;2023-04-03T11:41:54;18.70;70.50
22108;DHT22;11220;48.812;9.128;2023-04-03T11:44:36;18.70;70.50
22108;DHT22;11220;48.812;9.128;2023-04-03T11:47:04;18.60;70.40
22108;DHT22;11220;48.812;9.128;2023-04-03T11:50:00;18.60;70.40
22108;DHT22;11220;48.812;9.128;2023-04-03T12:00:48;18.70;70.40
22108;DHT22;11220;48.812;9.128;2023-04-03T12:16:07;18.70;70.20
22108;DHT22;11220;48.812;9.128;2023-04-03T12:24:24;18.80;70.20
22108;DHT22;11220;48.812;9.128;2023-04-03T12:35:37;18.80;70.40
22108;DHT22;11220;48.812;9.128;2023-04-03T12:38:37;18.80;70.50
22108;DHT22;11220;48.812;9.128;2023-04-03T12:51:15;18.80;70.60
22108;DHT22;11220;48.812;9.128;2023-04-03T12:53:44;18.80;70.60
22108;DHT22;11220;48.812;9.128;2023-04-03T12:56:23;18.80;70.60
22108;DHT22;11220;48.812;9.128;2023-04-03T12:58:54;18.80;70.50
22108;DHT22;11220;48.812;9.128;2023-04-03T13:01:22;18.80;70.60
22108;DHT22;11220;48.812;9.128;2023-04-03T13:03:52;18.80;70.60
22108;DHT22;11220;48.812;9.128;2023-04-03T13:06:19;18.80;70.60
22108;DHT22;11220;48.812;9.128;2023-04-03T13:08:55;18.80;70.70
22108;DHT22;11220;48.812;9.128;2023-04-03T13:11:26;18.80;70.70
22108;DHT22;11220;48.812;9.128;2023-04-03T13:13:56;18.80;70.60
22108;DHT22;11220;48.812;9.128;2023-04-03T13:16:22;18.80;70.70
22108;DHT22;11220;48.812;9.128;2023-04-03T13:18:53;18.80;70.70
22108;DHT22;11220;48.812;9.128;2023-04-03T13:21:30;18.80;70.70
22108;DHT22;11220;48.812;9.128;2023-04-03T13:23:59;18.80;70.80
22108;DHT22;11220;48.812;9.128;2023-04-03T13:26:29;18.80;70.90
22108;DHT22;11220;48.812;9.128;2023-04-03T13:28:59;18.80;70.80
22108;DHT22;11220;48.812;9.128;2023-04-03T13:31:28;18.80;70.90
22108;DHT22;11220;48.812;9.128;2023-04-03T13:36:24;18.80;70.90
22108;DHT22;11220;48.812;9.128;2023-04-03T13:39:03;18.80;70.80
22108;DHT22;11220;48.812;9.128;2023-04-03T13:41:30;18.80;70.80
22108;DHT22;11220;48.812;9.128;2023-04-03T13:43:56;18.80;70.80
22108;DHT22;11220;48.812;9.128;2023-04-03T13:46:25;18.80;70.90
22108;DHT22;11220;48.812;9.128;2023-04-03T13:48:54;18.80;70.90
22108;DHT22;11220;48.812;9.128;2023-04-03T13:51:26;18.80;70.90
22108;DHT22;11220;48.812;9.128;2023-04-03T13:54:00;18.80;70.90
22108;DHT22;11220;48.812;9.128;2023-04-03T13:56:27;18.80;70.90
22108;DHT22;11220;48.812;9.128;2023-04-03T13:59:02;18.80;70.90
22108;DHT22;11220;48.812;9.128;2023-04-03T14:01:45;18.80;71.00
22108;DHT22;11220;48.812;9.128;2023-04-03T14:06:48;18.80;71.00
22108;DHT22;11220;48.812;9.128;2023-04-03T14:09:17;18.80;71.00
22108;DHT22;11220;48.812;9.128;2023-04-03T14:11:43;18.80;71.10
22108;DHT22;11220;48.812;9.128;2023-04-03T14:14:27;18.80;71.10
22108;DHT22;11220;48.812;9.128;2023-04-03T14:16:57;18.80;71.10
22108;DHT22;11220;48.812;9.128;2023-04-03T14:19:27;18.80;71.00
22108;DHT22;11220;48.812;9.128;2023-04-03T14:21:54;18.80;71.00
22108;DHT22;11220;48.812;9.128;2023-04-03T14:24:20;18.80;71.10
22108;DHT22;11220;48.812;9.128;2023-04-03T14:26:47;18.80;71.00
22108;DHT22;11220;48.812;9.128;2023-04-03T14:29:13;18.80;71.00
22108;DHT22;11220;48.812;9.128;2023-04-03T14:31:41;18.80;71.00
22108;DHT22;11220;48.812;9.128;2023-04-03T14:34:06;18.80;71.10
22108;DHT22;11220;48.812;9.128;2023-04-03T14:36:32;18.80;71.00
22108;DHT22;11220;48.812;9.128;2023-04-03T14:38:59;18.80;71.00
22108;DHT22;11220;48.812;9.128;2023-04-03T14:41:26;18.70;71.00
22108;DHT22;11220;48.812;9.128;2023-04-03T14:43:53;18.80;71.10
22108;DHT22;11220;48.812;9.128;2023-04-03T14:46:26;18.80;71.10
22108;DHT22;11220;48.812;9.128;2023-04-03T14:48:54;18.80;71.00
22108;DHT22;11220;48.812;9.128;2023-04-03T14:51:20;18.80;71.00
22108;DHT22;11220;48.812;9.128;2023-04-03T14:53:45;18.80;70.90
22108;DHT22;11220;48.812;9.128;2023-04-03T14:56:19;18.80;70.90
22108;DHT22;11220;48.812;9.128;2023-04-03T14:58:59;18.80;71.00
22108;DHT22;11220;48.812;9.128;2023-04-03T15:01:26;18.90;71.20
22108;DHT22;11220;48.812;9.128;2023-04-03T15:03:52;18.90;71.20
22108;DHT22;11220;48.812;9.128;2023-04-03T15:06:18;19.00;71.20
22108;DHT22;11220;48.812;9.128;2023-04-03T15:08:45;19.00;71.20
22108;DHT22;11220;48.812;9.128;2023-04-03T15:11:12;19.00;71.20
22108;DHT22;11220;48.812;9.128;2023-04-03T15:13:38;19.00;71.10
22108;DHT22;11220;48.812;9.128;2023-04-03T15:16:12;19.10;71.20
22108;DHT22;11220;48.812;9.128;2023-04-03T15:18:39;19.00;71.10
22108;DHT22;11220;48.812;9.128;2023-04-03T15:21:05;19.00;71.10
22108;DHT22;11220;48.812;9.128;2023-04-03T15:23:31;19.10;71.10
22108;DHT22;11220;48.812;9.128;2023-04-03T15:25:57;19.00;71.10
22108;DHT22;11220;48.812;9.128;2023-04-03T15:28:37;19.00;71.10
22108;DHT22;11220;48.812;9.128;2023-04-03T15:31:03;19.00;71.10
22108;DHT22;11220;48.812;9.128;2023-04-03T15:33:30;19.00;71.20
22108;DHT22;11220;48.812;9.128;2023-04-03T15:35:56;19.10;71.40
22108;DHT22;11220;48.812;9.128;2023-04-03T15:38:21;19.10;71.60
22108;DHT22;11220;48.812;9.128;2023-04-03T15:40:47;19.10;71.70
22108;DHT22;11220;48.812;9.128;2023-04-03T15:43:13;19.10;71.80
22108;DHT22;11220;48.812;9.128;2023-04-03T15:45:39;19.10;71.80
22108;DHT22;11220;48.812;9.128;2023-04-03T15:48:05;19.10;71.80
22108;DHT22;11220;48.812;9.128;2023-04-03T15:50:34;19.10;71.80
22108;DHT22;11220;48.812;9.128;2023-04-03T15:53:00;19.10;71.90
22108;DHT22;11220;48.812;9.128;2023-04-03T15:55:29;19.10;71.90
22108;DHT22;11220;48.812;9.128;2023-04-03T15:57:55;19.20;72.20
22108;DHT22;11220;48.812;9.128;2023-04-03T16:00:22;19.20;72.30
22108;DHT22;11220;48.812;9.128;2023-04-03T16:02:51;19.30;72.40
22108;DHT22;11220;48.812;9.128;2023-04-03T16:05:18;19.30;72.50
22108;DHT22;11220;48.812;9.128;2023-04-03T16:07:45;19.30;72.60
22108;DHT22;11220;48.812;9.128;2023-04-03T16:10:12;19.40;72.60
22108;DHT22;11220;48.812;9.128;2023-04-03T16:12:38;19.40;72.60
22108;DHT22;11220;48.812;9.128;2023-04-03T16:15:04;19.40;71.40
22108;DHT22;11220;48.812;9.128;2023-04-03T16:17:32;19.40;71.40
22108;DHT22;11220;48.812;9.128;2023-04-03T16:19:57;19.50;71.70
22108;DHT22;11220;48.812;9.128;2023-04-03T16:22:25;19.50;71.90
22108;DHT22;11220;48.812;9.128;2023-04-03T16:24:51;19.50;72.10
22108;DHT22;11220;48.812;9.128;2023-04-03T16:27:17;19.50;72.10
22108;DHT22;11220;48.812;9.128;2023-04-03T16:29:42;19.50;72.10
22108;DHT22;11220;48.812;9.128;2023-04-03T16:32:08;19.50;71.90
22108;DHT22;11220;48.812;9.128;2023-04-03T16:34:34;19.50;71.70
22108;DHT22;11220;48.812;9.128;2023-04-03T16:37:00;19.40;71.60
22108;DHT22;11220;48.812;9.128;2023-04-03T16:39:25;19.40;71.50
22108;DHT22;11220;48.812;9.128;2023-04-03T16:41:51;19.30;71.40
22108;DHT22;11220;48.812;9.128;2023-04-03T16:44:17;19.30;71.40
22108;DHT22;11220;48.812;9.128;2023-04-03T16:46:43;19.30;71.50
22108;DHT22;11220;48.812;9.128;2023-04-03T16:49:09;19.20;71.50
22108;DHT22;11220;48.812;9.128;2023-04-03T16:51:34;19.20;71.60
22108;DHT22;11220;48.812;9.128;2023-04-03T16:54:00;19.10;65.30
22108;DHT22;11220;48.812;9.128;2023-04-03T16:56:26;18.90;63.50
22108;DHT22;11220;48.812;9.128;2023-04-03T16:58:54;18.70;61.50
22108;DHT22;11220;48.812;9.128;2023-04-03T17:01:21;18.60;63.40
22108;DHT22;11220;48.812;9.128;2023-04-03T17:03:47;18.60;65.80
22108;DHT22;11220;48.812;9.128;2023-04-03T17:06:17;18.60;64.40
22108;DHT22;11220;48.812;9.128;2023-04-03T17:08:44;18.60;64.00
22108;DHT22;11220;48.812;9.128;2023-04-03T17:11:10;18.60;65.50
22108;DHT22;11220;48.812;9.128;2023-04-03T17:13:36;18.60;66.70
22108;DHT22;11220;48.812;9.128;2023-04-03T17:16:03;18.60;67.50
22108;DHT22;11220;48.812;9.128;2023-04-03T17:18:31;18.70;68.00
22108;DHT22;11220;48.812;9.128;2023-04-03T17:20:57;18.70;68.30